Kezdőlap
METAR-TAF:

METAR-TAF

Repülőterek :

Pakse, Laosz

földrajzi szélesség: 15-08-02N, földrajzi hosszúság: 105-46-55E, magasság: 107 m

Jelenlegi meteorológiai megfigyelések

A jelentés 11 órával és 31 perccel ezelõtt készült, 12:00 UTC
Nyugati szél 2 kt
Hőmérséklet 28°C
Páratartalom 84%
Légköri nyomás 1005 hPa
Látótávolság: 7000 m
Szórványos felhőzet 2000 lábon
Szakadozott felhőzet 5000 lábon

METAR: VLPS 211200Z 27002KT 7000 SCT020 BKN050 28/25 Q1005 NOSIG

Idő: 06:31 (23:31 UTC)

Előrejelzés

A jelentés 6 órával és 31 perccel ezelõtt készült, 17:00 UTC
Az előrejelzés 21-én 18 óra UTC és 22-én 18 óra UTC között érvényes
Déli szél 4 kt
Látótávolság 10 km, vagy több
Szórványos felhőzet 1700 lábon
Szakadozott felhőzet 5000 lábon

TAF: VLPS 211700Z 2118/2218 18004KT 9999 SCT017 BKN050

Meteorológiai megfigyelések és előrejelzések több, mint 4000 repülőtéren (METAR és TAF jelentéseket).

A térképen piros és sárga pontok jelzik az elérhető meteorológiai állomásokat.

Mozgassa az egeret a pont fölött, hogy megjelenjen az állomás neve.

Azután kattintson az időjárási megfigyelések és előrejelzések megtekintéséhez.

A térkép megváltoztatása: kattintson a fekete keresztel jelölt zöld gombra ráközelítéshez, a vonallal jelölt zöld gombra távolításhoz, vagy a zöld nyilakra a szomszédos térképek eléréséhez.


METAR-TAF: